Mc Coll, South Carolina
Current Conditions -  °F | °C
As of 9:55 AM on Friday 28 Nov 2014 (Local Time) from KBBP Reporting Station
Clear Clear  
Wind Chill: 33°   Ceiling: Unl
Heat Index: 41°   Visibility: 10mi
Dew Point: 23°   Wind: 14mph
Humidity: 49%   Direction: 340°NNW
Pressure: 30.4"   Gusts: NA
Location:  34.6798°N, 79.5817°W
Report Text: KBBP 281455Z AUTO 34012KT 10SM CLR 05/M05 A3040 RMK AO2
Loading
Personal Weather Stations






























Interactive Weather Map New forecast layout! Learn more

10-Day Weather Forecast

Advertisements
Track Severe Weather on mobile